sensor_id;sensor_type;location;lat;lon;timestamp;temperature;humidity
13074;DHT22;6603;47.066;15.396;2023-07-31T00:01:57;16.90;99.90
13074;DHT22;6603;47.066;15.396;2023-07-31T00:04:23;16.90;99.90
13074;DHT22;6603;47.066;15.396;2023-07-31T00:06:49;16.90;99.90
13074;DHT22;6603;47.066;15.396;2023-07-31T00:09:15;16.90;99.90
13074;DHT22;6603;47.066;15.396;2023-07-31T00:11:41;16.90;99.90
13074;DHT22;6603;47.066;15.396;2023-07-31T00:14:07;16.90;99.90
13074;DHT22;6603;47.066;15.396;2023-07-31T00:16:33;17.00;99.90
13074;DHT22;6603;47.066;15.396;2023-07-31T00:18:59;17.00;99.90
13074;DHT22;6603;47.066;15.396;2023-07-31T00:21:24;16.90;99.90
13074;DHT22;6603;47.066;15.396;2023-07-31T00:23:50;16.90;99.90
13074;DHT22;6603;47.066;15.396;2023-07-31T00:26:16;16.80;99.90
13074;DHT22;6603;47.066;15.396;2023-07-31T00:28:42;16.90;99.90
13074;DHT22;6603;47.066;15.396;2023-07-31T00:31:08;16.90;99.90
13074;DHT22;6603;47.066;15.396;2023-07-31T00:33:35;17.00;99.90
13074;DHT22;6603;47.066;15.396;2023-07-31T00:36:02;16.90;99.90
13074;DHT22;6603;47.066;15.396;2023-07-31T00:38:28;16.80;99.90
13074;DHT22;6603;47.066;15.396;2023-07-31T00:40:54;16.70;99.90
13074;DHT22;6603;47.066;15.396;2023-07-31T00:43:20;16.70;99.90
13074;DHT22;6603;47.066;15.396;2023-07-31T00:45:46;16.80;99.90
13074;DHT22;6603;47.066;15.396;2023-07-31T00:48:12;16.70;99.90
13074;DHT22;6603;47.066;15.396;2023-07-31T00:50:38;16.80;99.90
13074;DHT22;6603;47.066;15.396;2023-07-31T00:53:04;16.70;99.90
13074;DHT22;6603;47.066;15.396;2023-07-31T00:55:31;16.60;99.90
13074;DHT22;6603;47.066;15.396;2023-07-31T00:57:57;16.70;99.90
13074;DHT22;6603;47.066;15.396;2023-07-31T01:00:22;16.60;99.90
13074;DHT22;6603;47.066;15.396;2023-07-31T01:02:50;16.70;99.90
13074;DHT22;6603;47.066;15.396;2023-07-31T01:05:18;16.60;99.90
13074;DHT22;6603;47.066;15.396;2023-07-31T01:08:12;16.60;99.90
13074;DHT22;6603;47.066;15.396;2023-07-31T01:11:07;16.70;99.90
13074;DHT22;6603;47.066;15.396;2023-07-31T01:13:36;16.50;99.90
13074;DHT22;6603;47.066;15.396;2023-07-31T01:16:03;16.70;99.90
13074;DHT22;6603;47.066;15.396;2023-07-31T01:18:28;16.70;99.90
13074;DHT22;6603;47.066;15.396;2023-07-31T01:21:02;16.60;99.90
13074;DHT22;6603;47.066;15.396;2023-07-31T01:26:19;16.50;99.90
13074;DHT22;6603;47.066;15.396;2023-07-31T01:31:30;16.60;99.90
13074;DHT22;6603;47.066;15.396;2023-07-31T01:34:00;16.40;99.90
13074;DHT22;6603;47.066;15.396;2023-07-31T01:36:27;16.40;99.90
13074;DHT22;6603;47.066;15.396;2023-07-31T01:38:58;16.40;99.90
13074;DHT22;6603;47.066;15.396;2023-07-31T01:41:25;16.30;99.90
13074;DHT22;6603;47.066;15.396;2023-07-31T01:43:51;16.40;99.90
13074;DHT22;6603;47.066;15.396;2023-07-31T01:46:17;16.30;99.90
13074;DHT22;6603;47.066;15.396;2023-07-31T01:48:42;16.40;99.90
13074;DHT22;6603;47.066;15.396;2023-07-31T01:51:08;16.20;99.90
13074;DHT22;6603;47.066;15.396;2023-07-31T01:53:34;15.90;99.90
13074;DHT22;6603;47.066;15.396;2023-07-31T01:56:00;15.90;99.90
13074;DHT22;6603;47.066;15.396;2023-07-31T01:58:26;16.10;99.90
13074;DHT22;6603;47.066;15.396;2023-07-31T02:00:52;16.10;99.90
13074;DHT22;6603;47.066;15.396;2023-07-31T02:03:18;16.10;99.90
13074;DHT22;6603;47.066;15.396;2023-07-31T02:05:48;16.20;99.90
13074;DHT22;6603;47.066;15.396;2023-07-31T02:08:15;16.10;99.90
13074;DHT22;6603;47.066;15.396;2023-07-31T02:10:41;16.10;99.90
13074;DHT22;6603;47.066;15.396;2023-07-31T02:13:07;16.10;99.90
13074;DHT22;6603;47.066;15.396;2023-07-31T02:15:34;16.10;99.90
13074;DHT22;6603;47.066;15.396;2023-07-31T02:18:00;16.10;99.90
13074;DHT22;6603;47.066;15.396;2023-07-31T02:20:26;16.00;99.90
13074;DHT22;6603;47.066;15.396;2023-07-31T02:22:51;16.00;99.90
13074;DHT22;6603;47.066;15.396;2023-07-31T02:25:17;16.10;99.90
13074;DHT22;6603;47.066;15.396;2023-07-31T02:27:43;16.00;99.90
13074;DHT22;6603;47.066;15.396;2023-07-31T02:30:10;16.00;99.90
13074;DHT22;6603;47.066;15.396;2023-07-31T02:32:36;16.10;99.90
13074;DHT22;6603;47.066;15.396;2023-07-31T02:35:02;16.10;99.90
13074;DHT22;6603;47.066;15.396;2023-07-31T02:37:28;16.10;99.90
13074;DHT22;6603;47.066;15.396;2023-07-31T02:39:54;16.00;99.90
13074;DHT22;6603;47.066;15.396;2023-07-31T02:42:20;16.00;99.90
13074;DHT22;6603;47.066;15.396;2023-07-31T02:44:46;15.90;99.90
13074;DHT22;6603;47.066;15.396;2023-07-31T02:47:12;15.90;99.90
13074;DHT22;6603;47.066;15.396;2023-07-31T02:49:38;15.80;99.90
13074;DHT22;6603;47.066;15.396;2023-07-31T02:52:04;15.80;99.90
13074;DHT22;6603;47.066;15.396;2023-07-31T02:54:35;16.00;99.90
13074;DHT22;6603;47.066;15.396;2023-07-31T02:57:00;16.00;99.90
13074;DHT22;6603;47.066;15.396;2023-07-31T02:59:28;15.80;99.90
13074;DHT22;6603;47.066;15.396;2023-07-31T05:07:55;16.30;99.90
13074;DHT22;6603;47.066;15.396;2023-07-31T05:10:20;16.50;99.90
13074;DHT22;6603;47.066;15.396;2023-07-31T05:12:46;16.60;99.90
13074;DHT22;6603;47.066;15.396;2023-07-31T05:15:12;16.60;99.90
13074;DHT22;6603;47.066;15.396;2023-07-31T05:17:37;16.60;99.90
13074;DHT22;6603;47.066;15.396;2023-07-31T05:20:03;16.70;99.90
13074;DHT22;6603;47.066;15.396;2023-07-31T05:22:29;16.80;99.90
13074;DHT22;6603;47.066;15.396;2023-07-31T05:24:55;16.90;99.90
13074;DHT22;6603;47.066;15.396;2023-07-31T05:27:20;17.00;99.90
13074;DHT22;6603;47.066;15.396;2023-07-31T05:29:46;17.20;99.90
13074;DHT22;6603;47.066;15.396;2023-07-31T05:32:12;17.30;99.90
13074;DHT22;6603;47.066;15.396;2023-07-31T05:34:38;17.40;99.90
13074;DHT22;6603;47.066;15.396;2023-07-31T05:37:04;17.50;99.90
13074;DHT22;6603;47.066;15.396;2023-07-31T05:39:30;17.70;99.90
13074;DHT22;6603;47.066;15.396;2023-07-31T05:41:56;17.60;99.90
13074;DHT22;6603;47.066;15.396;2023-07-31T05:44:21;17.70;99.90
13074;DHT22;6603;47.066;15.396;2023-07-31T05:46:47;17.70;99.90
13074;DHT22;6603;47.066;15.396;2023-07-31T05:49:13;17.90;99.90
13074;DHT22;6603;47.066;15.396;2023-07-31T05:51:39;18.00;99.90
13074;DHT22;6603;47.066;15.396;2023-07-31T05:54:05;18.20;99.90
13074;DHT22;6603;47.066;15.396;2023-07-31T05:56:31;18.30;99.90
13074;DHT22;6603;47.066;15.396;2023-07-31T05:58:59;18.30;99.90
13074;DHT22;6603;47.066;15.396;2023-07-31T06:01:25;18.50;99.90
13074;DHT22;6603;47.066;15.396;2023-07-31T06:03:50;18.50;99.90
13074;DHT22;6603;47.066;15.396;2023-07-31T06:06:17;18.60;99.90
13074;DHT22;6603;47.066;15.396;2023-07-31T06:08:43;18.70;99.90
13074;DHT22;6603;47.066;15.396;2023-07-31T06:11:09;18.60;99.90
13074;DHT22;6603;47.066;15.396;2023-07-31T06:13:35;18.70;99.90
13074;DHT22;6603;47.066;15.396;2023-07-31T06:16:01;18.90;99.90
13074;DHT22;6603;47.066;15.396;2023-07-31T06:18:32;19.20;99.90
13074;DHT22;6603;47.066;15.396;2023-07-31T06:20:58;19.40;99.90
13074;DHT22;6603;47.066;15.396;2023-07-31T06:23:24;19.40;99.90
13074;DHT22;6603;47.066;15.396;2023-07-31T06:25:50;19.50;99.90
13074;DHT22;6603;47.066;15.396;2023-07-31T06:28:15;19.60;99.90
13074;DHT22;6603;47.066;15.396;2023-07-31T06:30:41;19.60;99.90
13074;DHT22;6603;47.066;15.396;2023-07-31T06:33:07;19.80;99.90
13074;DHT22;6603;47.066;15.396;2023-07-31T06:35:34;19.80;99.90
13074;DHT22;6603;47.066;15.396;2023-07-31T06:38:00;19.80;88.00
13074;DHT22;6603;47.066;15.396;2023-07-31T06:40:28;19.70;99.90
13074;DHT22;6603;47.066;15.396;2023-07-31T06:42:53;19.80;99.90
13074;DHT22;6603;47.066;15.396;2023-07-31T06:45:19;19.90;94.20
13074;DHT22;6603;47.066;15.396;2023-07-31T06:47:45;20.00;99.90
13074;DHT22;6603;47.066;15.396;2023-07-31T06:50:11;20.20;99.90
13074;DHT22;6603;47.066;15.396;2023-07-31T06:52:37;20.30;79.70
13074;DHT22;6603;47.066;15.396;2023-07-31T06:55:23;20.40;97.30
13074;DHT22;6603;47.066;15.396;2023-07-31T06:57:51;20.60;70.50
13074;DHT22;6603;47.066;15.396;2023-07-31T07:00:18;20.60;50.60
13074;DHT22;6603;47.066;15.396;2023-07-31T07:02:45;20.60;44.50
13074;DHT22;6603;47.066;15.396;2023-07-31T07:05:14;20.80;82.90
13074;DHT22;6603;47.066;15.396;2023-07-31T07:07:40;20.80;66.20
13074;DHT22;6603;47.066;15.396;2023-07-31T07:10:07;20.80;12.50
13074;DHT22;6603;47.066;15.396;2023-07-31T07:12:33;20.80;68.80
13074;DHT22;6603;47.066;15.396;2023-07-31T07:15:00;20.90;48.30
13074;DHT22;6603;47.066;15.396;2023-07-31T07:17:30;21.00;40.70
13074;DHT22;6603;47.066;15.396;2023-07-31T07:19:59;21.00;21.10
13074;DHT22;6603;47.066;15.396;2023-07-31T07:22:26;21.20;1.00
13074;DHT22;6603;47.066;15.396;2023-07-31T07:24:53;21.20;1.00
13074;DHT22;6603;47.066;15.396;2023-07-31T07:27:19;21.20;1.00
13074;DHT22;6603;47.066;15.396;2023-07-31T07:29:46;21.50;1.00
13074;DHT22;6603;47.066;15.396;2023-07-31T07:32:12;21.60;1.00
13074;DHT22;6603;47.066;15.396;2023-07-31T07:34:38;21.50;1.00
13074;DHT22;6603;47.066;15.396;2023-07-31T07:37:04;21.50;1.00
13074;DHT22;6603;47.066;15.396;2023-07-31T07:39:30;21.50;1.00
13074;DHT22;6603;47.066;15.396;2023-07-31T07:41:56;21.40;99.90
13074;DHT22;6603;47.066;15.396;2023-07-31T07:44:22;21.50;1.00
13074;DHT22;6603;47.066;15.396;2023-07-31T07:46:48;21.50;1.00
13074;DHT22;6603;47.066;15.396;2023-07-31T07:49:14;21.60;1.00
13074;DHT22;6603;47.066;15.396;2023-07-31T07:51:40;21.60;1.00
13074;DHT22;6603;47.066;15.396;2023-07-31T07:54:06;21.60;1.00
13074;DHT22;6603;47.066;15.396;2023-07-31T07:56:33;21.70;1.00
13074;DHT22;6603;47.066;15.396;2023-07-31T07:58:59;21.80;1.00
13074;DHT22;6603;47.066;15.396;2023-07-31T08:01:25;22.00;1.00
13074;DHT22;6603;47.066;15.396;2023-07-31T08:03:51;21.90;1.00
13074;DHT22;6603;47.066;15.396;2023-07-31T08:06:17;22.00;1.00
13074;DHT22;6603;47.066;15.396;2023-07-31T08:08:42;21.90;1.00
13074;DHT22;6603;47.066;15.396;2023-07-31T08:11:08;22.00;1.00
13074;DHT22;6603;47.066;15.396;2023-07-31T08:13:34;22.10;99.90
13074;DHT22;6603;47.066;15.396;2023-07-31T08:16:03;22.20;1.00
13074;DHT22;6603;47.066;15.396;2023-07-31T08:18:30;22.20;1.00
13074;DHT22;6603;47.066;15.396;2023-07-31T08:20:56;22.30;99.90
13074;DHT22;6603;47.066;15.396;2023-07-31T08:23:22;22.40;1.00
13074;DHT22;6603;47.066;15.396;2023-07-31T08:25:48;22.50;99.90
13074;DHT22;6603;47.066;15.396;2023-07-31T08:28:15;22.50;99.90
13074;DHT22;6603;47.066;15.396;2023-07-31T08:30:41;22.70;1.00
13074;DHT22;6603;47.066;15.396;2023-07-31T08:33:07;22.70;99.90
13074;DHT22;6603;47.066;15.396;2023-07-31T08:35:34;22.90;1.00
13074;DHT22;6603;47.066;15.396;2023-07-31T08:38:00;23.00;1.00
13074;DHT22;6603;47.066;15.396;2023-07-31T08:40:25;23.10;1.00
13074;DHT22;6603;47.066;15.396;2023-07-31T08:42:54;23.20;1.00
13074;DHT22;6603;47.066;15.396;2023-07-31T08:45:22;23.40;99.90
13074;DHT22;6603;47.066;15.396;2023-07-31T08:47:51;23.40;1.00
13074;DHT22;6603;47.066;15.396;2023-07-31T08:50:19;23.30;99.90
13074;DHT22;6603;47.066;15.396;2023-07-31T08:52:47;23.40;1.00
13074;DHT22;6603;47.066;15.396;2023-07-31T08:55:13;23.50;1.00
13074;DHT22;6603;47.066;15.396;2023-07-31T08:57:40;23.60;99.90
13074;DHT22;6603;47.066;15.396;2023-07-31T09:00:08;23.50;99.90
13074;DHT22;6603;47.066;15.396;2023-07-31T09:02:59;23.60;99.90
13074;DHT22;6603;47.066;15.396;2023-07-31T09:05:28;23.60;99.90
13074;DHT22;6603;47.066;15.396;2023-07-31T09:07:55;23.70;1.00
13074;DHT22;6603;47.066;15.396;2023-07-31T09:10:23;23.90;1.00
13074;DHT22;6603;47.066;15.396;2023-07-31T09:12:50;24.20;1.00
13074;DHT22;6603;47.066;15.396;2023-07-31T09:15:17;24.50;99.90
13074;DHT22;6603;47.066;15.396;2023-07-31T09:17:44;24.30;1.00
13074;DHT22;6603;47.066;15.396;2023-07-31T09:20:16;24.30;1.00
13074;DHT22;6603;47.066;15.396;2023-07-31T09:22:43;24.30;1.00
13074;DHT22;6603;47.066;15.396;2023-07-31T09:25:27;24.50;99.90
13074;DHT22;6603;47.066;15.396;2023-07-31T09:28:05;24.40;99.90
13074;DHT22;6603;47.066;15.396;2023-07-31T09:30:51;24.50;1.00
13074;DHT22;6603;47.066;15.396;2023-07-31T09:33:18;24.30;99.90
13074;DHT22;6603;47.066;15.396;2023-07-31T09:35:44;24.40;18.60
13074;DHT22;6603;47.066;15.396;2023-07-31T09:38:12;24.50;1.00
13074;DHT22;6603;47.066;15.396;2023-07-31T09:40:40;24.30;1.00
13074;DHT22;6603;47.066;15.396;2023-07-31T09:43:07;24.60;1.00
13074;DHT22;6603;47.066;15.396;2023-07-31T09:45:40;24.90;99.90
13074;DHT22;6603;47.066;15.396;2023-07-31T09:48:10;25.10;1.00
13074;DHT22;6603;47.066;15.396;2023-07-31T09:50:42;24.90;1.00
13074;DHT22;6603;47.066;15.396;2023-07-31T09:53:09;24.80;1.00
13074;DHT22;6603;47.066;15.396;2023-07-31T09:55:36;24.90;1.00
13074;DHT22;6603;47.066;15.396;2023-07-31T09:58:05;25.00;99.90
13074;DHT22;6603;47.066;15.396;2023-07-31T10:00:31;25.00;1.00
13074;DHT22;6603;47.066;15.396;2023-07-31T10:03:03;25.10;1.00
13074;DHT22;6603;47.066;15.396;2023-07-31T10:05:50;25.10;99.90
13074;DHT22;6603;47.066;15.396;2023-07-31T10:08:18;24.90;99.90
13074;DHT22;6603;47.066;15.396;2023-07-31T10:10:46;24.60;1.00
13074;DHT22;6603;47.066;15.396;2023-07-31T10:13:13;24.40;1.00
13074;DHT22;6603;47.066;15.396;2023-07-31T10:15:40;24.90;1.00
13074;DHT22;6603;47.066;15.396;2023-07-31T10:18:07;24.80;99.90
13074;DHT22;6603;47.066;15.396;2023-07-31T10:20:34;25.20;1.00
13074;DHT22;6603;47.066;15.396;2023-07-31T10:23:01;25.40;99.90
13074;DHT22;6603;47.066;15.396;2023-07-31T10:25:27;25.40;1.00
13074;DHT22;6603;47.066;15.396;2023-07-31T10:27:54;25.50;1.00
13074;DHT22;6603;47.066;15.396;2023-07-31T10:30:27;25.40;1.00
13074;DHT22;6603;47.066;15.396;2023-07-31T10:32:56;25.30;1.00
13074;DHT22;6603;47.066;15.396;2023-07-31T10:35:22;25.50;1.00
13074;DHT22;6603;47.066;15.396;2023-07-31T10:37:49;25.50;1.00
13074;DHT22;6603;47.066;15.396;2023-07-31T10:40:26;25.70;99.90
13074;DHT22;6603;47.066;15.396;2023-07-31T10:42:52;26.00;99.90
13074;DHT22;6603;47.066;15.396;2023-07-31T10:45:36;26.20;99.90
13074;DHT22;6603;47.066;15.396;2023-07-31T10:48:12;25.80;16.50
13074;DHT22;6603;47.066;15.396;2023-07-31T10:50:49;25.60;99.90
13074;DHT22;6603;47.066;15.396;2023-07-31T10:53:39;25.10;1.00
13074;DHT22;6603;47.066;15.396;2023-07-31T10:56:08;25.60;1.00
13074;DHT22;6603;47.066;15.396;2023-07-31T10:58:37;25.80;1.00
13074;DHT22;6603;47.066;15.396;2023-07-31T11:01:05;26.30;1.00
13074;DHT22;6603;47.066;15.396;2023-07-31T11:03:47;26.10;99.90
13074;DHT22;6603;47.066;15.396;2023-07-31T11:06:16;26.30;1.00
13074;DHT22;6603;47.066;15.396;2023-07-31T11:08:44;26.70;1.00
13074;DHT22;6603;47.066;15.396;2023-07-31T11:11:16;26.90;1.00
13074;DHT22;6603;47.066;15.396;2023-07-31T11:13:47;27.20;1.00
13074;DHT22;6603;47.066;15.396;2023-07-31T11:16:19;27.10;99.90
13074;DHT22;6603;47.066;15.396;2023-07-31T11:18:47;26.60;43.60
13074;DHT22;6603;47.066;15.396;2023-07-31T11:21:15;26.90;99.90
13074;DHT22;6603;47.066;15.396;2023-07-31T11:23:49;27.20;1.00
13074;DHT22;6603;47.066;15.396;2023-07-31T11:26:16;26.60;99.90
13074;DHT22;6603;47.066;15.396;2023-07-31T11:28:42;26.20;1.00
13074;DHT22;6603;47.066;15.396;2023-07-31T11:31:11;26.70;1.00
13074;DHT22;6603;47.066;15.396;2023-07-31T11:33:37;27.00;1.00
13074;DHT22;6603;47.066;15.396;2023-07-31T11:36:03;26.80;99.90
13074;DHT22;6603;47.066;15.396;2023-07-31T11:38:33;27.00;99.90
13074;DHT22;6603;47.066;15.396;2023-07-31T11:41:04;27.20;99.90
13074;DHT22;6603;47.066;15.396;2023-07-31T11:43:33;27.10;1.00
13074;DHT22;6603;47.066;15.396;2023-07-31T11:46:01;27.10;99.90
13074;DHT22;6603;47.066;15.396;2023-07-31T11:48:33;26.90;99.90
13074;DHT22;6603;47.066;15.396;2023-07-31T11:51:02;26.70;99.90
13074;DHT22;6603;47.066;15.396;2023-07-31T11:53:51;26.90;1.00
13074;DHT22;6603;47.066;15.396;2023-07-31T11:56:19;26.90;1.00
13074;DHT22;6603;47.066;15.396;2023-07-31T11:58:47;27.30;99.90
13074;DHT22;6603;47.066;15.396;2023-07-31T12:01:15;27.90;1.00
13074;DHT22;6603;47.066;15.396;2023-07-31T12:03:42;28.10;1.00
13074;DHT22;6603;47.066;15.396;2023-07-31T12:06:08;27.90;1.00
13074;DHT22;6603;47.066;15.396;2023-07-31T12:08:36;27.20;1.00
13074;DHT22;6603;47.066;15.396;2023-07-31T12:11:04;27.20;99.90
13074;DHT22;6603;47.066;15.396;2023-07-31T12:13:32;26.80;1.00
13074;DHT22;6603;47.066;15.396;2023-07-31T12:16:03;27.10;1.00
13074;DHT22;6603;47.066;15.396;2023-07-31T12:18:33;26.90;99.90
13074;DHT22;6603;47.066;15.396;2023-07-31T12:21:01;27.20;1.00
13074;DHT22;6603;47.066;15.396;2023-07-31T12:23:29;27.20;99.90
13074;DHT22;6603;47.066;15.396;2023-07-31T12:26:12;27.00;99.90
13074;DHT22;6603;47.066;15.396;2023-07-31T12:28:41;26.80;99.90
13074;DHT22;6603;47.066;15.396;2023-07-31T12:31:10;26.60;99.90
13074;DHT22;6603;47.066;15.396;2023-07-31T12:33:38;26.40;99.90
13074;DHT22;6603;47.066;15.396;2023-07-31T12:36:09;26.90;1.00
13074;DHT22;6603;47.066;15.396;2023-07-31T12:38:36;26.70;1.00
13074;DHT22;6603;47.066;15.396;2023-07-31T12:41:02;26.90;1.00
13074;DHT22;6603;47.066;15.396;2023-07-31T12:43:28;27.10;1.00
13074;DHT22;6603;47.066;15.396;2023-07-31T12:45:55;26.90;99.90
13074;DHT22;6603;47.066;15.396;2023-07-31T12:48:22;26.60;1.00
13074;DHT22;6603;47.066;15.396;2023-07-31T12:50:48;26.50;1.00
13074;DHT22;6603;47.066;15.396;2023-07-31T12:53:15;26.60;99.90
13074;DHT22;6603;47.066;15.396;2023-07-31T12:55:41;26.90;99.90
13074;DHT22;6603;47.066;15.396;2023-07-31T12:58:07;27.30;99.90
13074;DHT22;6603;47.066;15.396;2023-07-31T13:00:33;27.30;42.60
13074;DHT22;6603;47.066;15.396;2023-07-31T13:03:00;27.30;99.90
13074;DHT22;6603;47.066;15.396;2023-07-31T13:05:27;26.90;99.90
13074;DHT22;6603;47.066;15.396;2023-07-31T13:07:54;26.80;1.00
13074;DHT22;6603;47.066;15.396;2023-07-31T13:10:20;26.90;99.90
13074;DHT22;6603;47.066;15.396;2023-07-31T13:12:46;26.50;67.40
13074;DHT22;6603;47.066;15.396;2023-07-31T13:15:12;26.70;1.00
13074;DHT22;6603;47.066;15.396;2023-07-31T13:17:38;26.90;99.90
13074;DHT22;6603;47.066;15.396;2023-07-31T13:20:04;26.90;99.90
13074;DHT22;6603;47.066;15.396;2023-07-31T13:22:31;26.70;70.60
13074;DHT22;6603;47.066;15.396;2023-07-31T13:24:57;26.50;1.00
13074;DHT22;6603;47.066;15.396;2023-07-31T13:27:22;26.10;1.00
13074;DHT22;6603;47.066;15.396;2023-07-31T13:29:53;25.90;1.00
13074;DHT22;6603;47.066;15.396;2023-07-31T13:32:20;25.50;1.00
13074;DHT22;6603;47.066;15.396;2023-07-31T13:34:47;25.50;99.90
13074;DHT22;6603;47.066;15.396;2023-07-31T13:37:13;25.40;1.00
13074;DHT22;6603;47.066;15.396;2023-07-31T13:39:39;25.50;99.90
13074;DHT22;6603;47.066;15.396;2023-07-31T13:42:07;25.50;1.00
13074;DHT22;6603;47.066;15.396;2023-07-31T13:44:37;26.20;1.00
13074;DHT22;6603;47.066;15.396;2023-07-31T13:47:04;26.70;1.00
13074;DHT22;6603;47.066;15.396;2023-07-31T13:49:30;27.60;99.90
13074;DHT22;6603;47.066;15.396;2023-07-31T13:51:57;28.00;1.00
13074;DHT22;6603;47.066;15.396;2023-07-31T13:54:23;27.70;1.00
13074;DHT22;6603;47.066;15.396;2023-07-31T13:56:49;27.80;1.00
13074;DHT22;6603;47.066;15.396;2023-07-31T13:59:15;28.30;1.00
13074;DHT22;6603;47.066;15.396;2023-07-31T14:01:43;28.50;1.00
13074;DHT22;6603;47.066;15.396;2023-07-31T14:04:09;28.50;1.00
13074;DHT22;6603;47.066;15.396;2023-07-31T14:06:35;28.30;1.00
13074;DHT22;6603;47.066;15.396;2023-07-31T14:09:01;28.40;1.00
13074;DHT22;6603;47.066;15.396;2023-07-31T14:11:27;28.20;1.00
13074;DHT22;6603;47.066;15.396;2023-07-31T14:13:53;28.20;1.00
13074;DHT22;6603;47.066;15.396;2023-07-31T14:16:19;28.00;1.00
13074;DHT22;6603;47.066;15.396;2023-07-31T14:18:45;28.70;1.00
13074;DHT22;6603;47.066;15.396;2023-07-31T14:21:14;29.10;99.90
13074;DHT22;6603;47.066;15.396;2023-07-31T14:23:40;29.30;99.90
13074;DHT22;6603;47.066;15.396;2023-07-31T14:26:06;29.60;99.90
13074;DHT22;6603;47.066;15.396;2023-07-31T14:28:32;29.60;99.90
13074;DHT22;6603;47.066;15.396;2023-07-31T14:30:58;29.20;99.90
13074;DHT22;6603;47.066;15.396;2023-07-31T14:33:24;28.50;1.00
13074;DHT22;6603;47.066;15.396;2023-07-31T14:35:50;28.10;1.00
13074;DHT22;6603;47.066;15.396;2023-07-31T15:17:42;28.30;1.00
13074;DHT22;6603;47.066;15.396;2023-07-31T15:20:10;29.10;99.90
13074;DHT22;6603;47.066;15.396;2023-07-31T15:22:36;29.10;99.90
13074;DHT22;6603;47.066;15.396;2023-07-31T15:25:01;29.30;99.90
13074;DHT22;6603;47.066;15.396;2023-07-31T15:27:27;29.30;99.90
13074;DHT22;6603;47.066;15.396;2023-07-31T15:29:53;29.30;99.90
13074;DHT22;6603;47.066;15.396;2023-07-31T15:32:18;28.70;99.90
13074;DHT22;6603;47.066;15.396;2023-07-31T15:34:44;28.10;99.90
13074;DHT22;6603;47.066;15.396;2023-07-31T15:37:10;27.50;1.00
13074;DHT22;6603;47.066;15.396;2023-07-31T15:39:36;27.40;1.00
13074;DHT22;6603;47.066;15.396;2023-07-31T15:42:01;27.30;77.00
13074;DHT22;6603;47.066;15.396;2023-07-31T15:44:27;27.00;99.90
13074;DHT22;6603;47.066;15.396;2023-07-31T15:46:53;27.30;99.90
13074;DHT22;6603;47.066;15.396;2023-07-31T15:49:19;27.20;99.90
13074;DHT22;6603;47.066;15.396;2023-07-31T15:51:45;26.90;1.00
13074;DHT22;6603;47.066;15.396;2023-07-31T15:54:10;27.50;1.00
13074;DHT22;6603;47.066;15.396;2023-07-31T15:56:36;27.50;1.00
13074;DHT22;6603;47.066;15.396;2023-07-31T15:59:02;27.10;99.90
13074;DHT22;6603;47.066;15.396;2023-07-31T16:01:28;26.80;1.00
13074;DHT22;6603;47.066;15.396;2023-07-31T16:03:54;26.90;99.90
13074;DHT22;6603;47.066;15.396;2023-07-31T16:06:20;26.70;99.90
13074;DHT22;6603;47.066;15.396;2023-07-31T16:08:45;26.50;99.90
13074;DHT22;6603;47.066;15.396;2023-07-31T16:11:11;26.40;99.90
13074;DHT22;6603;47.066;15.396;2023-07-31T16:13:37;26.20;99.90
13074;DHT22;6603;47.066;15.396;2023-07-31T16:16:03;26.20;1.00
13074;DHT22;6603;47.066;15.396;2023-07-31T16:18:29;26.20;1.00
13074;DHT22;6603;47.066;15.396;2023-07-31T16:20:55;26.40;99.90
13074;DHT22;6603;47.066;15.396;2023-07-31T16:23:21;27.20;1.00
13074;DHT22;6603;47.066;15.396;2023-07-31T16:25:47;27.40;1.00
13074;DHT22;6603;47.066;15.396;2023-07-31T16:28:13;27.70;99.90
13074;DHT22;6603;47.066;15.396;2023-07-31T16:30:38;28.10;1.00
13074;DHT22;6603;47.066;15.396;2023-07-31T16:33:04;28.40;1.00
13074;DHT22;6603;47.066;15.396;2023-07-31T16:35:30;29.00;99.90
13074;DHT22;6603;47.066;15.396;2023-07-31T16:37:56;28.80;1.00
13074;DHT22;6603;47.066;15.396;2023-07-31T16:40:21;28.40;99.90
13074;DHT22;6603;47.066;15.396;2023-07-31T16:42:47;28.10;1.00
13074;DHT22;6603;47.066;15.396;2023-07-31T16:45:13;27.60;1.00
13074;DHT22;6603;47.066;15.396;2023-07-31T16:47:39;27.30;99.90
13074;DHT22;6603;47.066;15.396;2023-07-31T16:50:05;27.00;1.00
13074;DHT22;6603;47.066;15.396;2023-07-31T16:52:30;26.60;99.90
13074;DHT22;6603;47.066;15.396;2023-07-31T16:54:56;26.70;99.90
13074;DHT22;6603;47.066;15.396;2023-07-31T16:57:22;27.90;1.00
13074;DHT22;6603;47.066;15.396;2023-07-31T16:59:50;27.60;99.90
13074;DHT22;6603;47.066;15.396;2023-07-31T17:02:16;27.50;95.00
13074;DHT22;6603;47.066;15.396;2023-07-31T17:04:42;27.90;1.00
13074;DHT22;6603;47.066;15.396;2023-07-31T17:07:07;27.80;1.00
13074;DHT22;6603;47.066;15.396;2023-07-31T17:09:33;27.60;1.00
13074;DHT22;6603;47.066;15.396;2023-07-31T17:11:59;27.30;99.90
13074;DHT22;6603;47.066;15.396;2023-07-31T17:14:25;27.10;99.90
13074;DHT22;6603;47.066;15.396;2023-07-31T17:16:52;26.90;1.00
13074;DHT22;6603;47.066;15.396;2023-07-31T17:19:18;26.70;1.00
13074;DHT22;6603;47.066;15.396;2023-07-31T17:21:44;26.60;1.00
13074;DHT22;6603;47.066;15.396;2023-07-31T17:24:10;26.40;99.90
13074;DHT22;6603;47.066;15.396;2023-07-31T17:26:35;26.40;1.00
13074;DHT22;6603;47.066;15.396;2023-07-31T17:29:01;26.30;1.00
13074;DHT22;6603;47.066;15.396;2023-07-31T17:31:27;26.20;99.90
13074;DHT22;6603;47.066;15.396;2023-07-31T17:33:53;26.20;1.00
13074;DHT22;6603;47.066;15.396;2023-07-31T17:36:19;25.90;1.00
13074;DHT22;6603;47.066;15.396;2023-07-31T17:38:44;25.80;1.00
13074;DHT22;6603;47.066;15.396;2023-07-31T17:41:11;25.50;1.00
13074;DHT22;6603;47.066;15.396;2023-07-31T17:43:37;25.30;99.90
13074;DHT22;6603;47.066;15.396;2023-07-31T17:46:03;25.10;99.90
13074;DHT22;6603;47.066;15.396;2023-07-31T17:48:29;24.80;1.00
13074;DHT22;6603;47.066;15.396;2023-07-31T17:50:55;24.60;1.00
13074;DHT22;6603;47.066;15.396;2023-07-31T17:53:21;24.40;1.00
13074;DHT22;6603;47.066;15.396;2023-07-31T17:55:47;24.30;99.90
13074;DHT22;6603;47.066;15.396;2023-07-31T17:58:14;24.30;28.80
13074;DHT22;6603;47.066;15.396;2023-07-31T18:00:40;24.10;1.00
13074;DHT22;6603;47.066;15.396;2023-07-31T18:03:06;24.00;1.00
13074;DHT22;6603;47.066;15.396;2023-07-31T18:05:33;23.90;99.90
13074;DHT22;6603;47.066;15.396;2023-07-31T18:08:01;23.80;99.90
13074;DHT22;6603;47.066;15.396;2023-07-31T18:10:26;23.70;1.00
13074;DHT22;6603;47.066;15.396;2023-07-31T18:12:54;23.60;1.00
13074;DHT22;6603;47.066;15.396;2023-07-31T18:15:20;23.50;1.00
13074;DHT22;6603;47.066;15.396;2023-07-31T18:17:45;23.30;1.00
13074;DHT22;6603;47.066;15.396;2023-07-31T18:20:11;23.10;1.00
13074;DHT22;6603;47.066;15.396;2023-07-31T18:22:39;23.00;1.00
13074;DHT22;6603;47.066;15.396;2023-07-31T18:25:05;23.10;1.00
13074;DHT22;6603;47.066;15.396;2023-07-31T18:27:31;23.00;1.00
13074;DHT22;6603;47.066;15.396;2023-07-31T18:29:57;23.00;1.00